createdAt,value
2016-11-17T00:00:50.340Z,1001.02
2016-11-17T00:01:50.328Z,1001.06
2016-11-17T00:02:50.311Z,1001.09
2016-11-17T00:03:50.297Z,1001.06
2016-11-17T00:04:50.283Z,1001.14
2016-11-17T00:05:50.268Z,1001.06
2016-11-17T00:06:50.252Z,1001.11
2016-11-17T00:07:50.239Z,1001.02
2016-11-17T00:08:50.226Z,1001
2016-11-17T00:09:50.209Z,1001.06
2016-11-17T00:10:50.195Z,1001.04
2016-11-17T00:11:50.181Z,1001.07
2016-11-17T00:12:50.185Z,1001.03
2016-11-17T00:13:50.152Z,1001.03
2016-11-17T00:14:50.137Z,1001.03
2016-11-17T00:15:50.123Z,1001.04
2016-11-17T00:16:50.107Z,1001.02
2016-11-17T00:17:50.092Z,1001.02
2016-11-17T00:18:50.079Z,1000.96
2016-11-17T00:19:50.061Z,1000.96
2016-11-17T00:20:50.050Z,1000.92
2016-11-17T00:21:50.035Z,1001.03
2016-11-17T00:22:50.020Z,1000.94
2016-11-17T00:23:50.004Z,1001.02
2016-11-17T00:24:49.989Z,1000.96
2016-11-17T00:25:49.977Z,1001.01
2016-11-17T00:26:49.962Z,1001.06
2016-11-17T00:27:49.948Z,1000.99
2016-11-17T00:28:49.932Z,1000.95
2016-11-17T00:29:49.918Z,1000.99
2016-11-17T00:30:49.904Z,1000.96
2016-11-17T00:31:49.889Z,1000.9
2016-11-17T00:32:49.874Z,1000.92
2016-11-17T00:33:49.858Z,1000.88
2016-11-17T00:34:49.844Z,1000.9
2016-11-17T00:35:49.833Z,1000.92
2016-11-17T00:36:49.816Z,1000.88
2016-11-17T00:37:49.804Z,1000.97
2016-11-17T00:38:49.786Z,1000.88
2016-11-17T00:39:49.773Z,1000.94
2016-11-17T00:40:49.757Z,1000.97
2016-11-17T00:41:49.742Z,1000.97
2016-11-17T00:42:49.729Z,1001
2016-11-17T00:43:49.714Z,1001.08
2016-11-17T00:44:49.699Z,1001.07
2016-11-17T00:45:49.684Z,1001.11
2016-11-17T00:46:49.671Z,1001.13
2016-11-17T00:47:49.657Z,1001.22
2016-11-17T00:48:49.642Z,1001.21
2016-11-17T00:49:49.627Z,1001.16
2016-11-17T00:50:49.613Z,1001.18
2016-11-17T00:51:49.600Z,1001.12
2016-11-17T00:52:49.587Z,1001.08
2016-11-17T00:53:49.569Z,1001.12
2016-11-17T00:54:49.555Z,1001.11
2016-11-17T00:55:49.543Z,1001.1
2016-11-17T00:56:49.525Z,1001.04
2016-11-17T00:57:49.510Z,1001.03
2016-11-17T00:58:49.496Z,1001.05
2016-11-17T00:59:49.480Z,1001.09
2016-11-17T01:00:49.465Z,1000.99
2016-11-17T01:01:49.450Z,1001.04
2016-11-17T01:02:49.437Z,1001.03
2016-11-17T01:03:49.419Z,1001
2016-11-17T01:04:49.407Z,1000.9
2016-11-17T01:05:49.442Z,1000.93
2016-11-17T01:06:49.374Z,1000.94
2016-11-17T01:07:49.361Z,1000.96
2016-11-17T01:08:49.351Z,1000.95
2016-11-17T01:09:49.330Z,1000.87
2016-11-17T01:10:49.316Z,1000.77
2016-11-17T01:11:49.300Z,1000.74
2016-11-17T01:12:49.285Z,1000.72
2016-11-17T01:13:49.271Z,1000.68
2016-11-17T01:14:49.253Z,1000.7
2016-11-17T01:15:49.244Z,1000.75
2016-11-17T01:16:49.226Z,1000.73
2016-11-17T01:17:49.212Z,1000.9
2016-11-17T01:18:49.195Z,1000.9
2016-11-17T01:19:49.179Z,1000.89
2016-11-17T01:20:49.164Z,1000.89
2016-11-17T01:21:49.148Z,1000.89
2016-11-17T01:22:49.133Z,1000.95
2016-11-17T01:23:49.116Z,1000.9
2016-11-17T01:24:49.101Z,1000.88
2016-11-17T01:25:49.086Z,1000.85
2016-11-17T01:26:49.071Z,1000.83
2016-11-17T01:27:49.059Z,1000.79
2016-11-17T01:28:49.040Z,1000.76
2016-11-17T01:29:49.025Z,1000.68
2016-11-17T01:30:49.010Z,1000.68
2016-11-17T01:31:48.996Z,1000.72
2016-11-17T01:32:48.979Z,1000.7
2016-11-17T01:33:48.964Z,1000.72
2016-11-17T01:34:48.947Z,1000.75
2016-11-17T01:35:49.134Z,1000.72
2016-11-17T01:36:48.916Z,1000.69
2016-11-17T01:37:48.899Z,1000.63
2016-11-17T01:38:48.885Z,1000.58
2016-11-17T01:39:48.871Z,1000.59
2016-11-17T01:40:48.853Z,1000.6
2016-11-17T01:41:48.840Z,1000.58
2016-11-17T01:42:48.823Z,1000.51
2016-11-17T01:43:48.808Z,1000.52
2016-11-17T01:44:48.792Z,1000.47
2016-11-17T01:45:48.777Z,1000.53
2016-11-17T01:46:48.760Z,1000.48
2016-11-17T01:47:48.745Z,1000.45
2016-11-17T01:48:48.729Z,1000.53
2016-11-17T01:49:48.716Z,1000.46
2016-11-17T01:50:48.698Z,1000.4
2016-11-17T01:51:48.683Z,1000.37
2016-11-17T01:52:48.666Z,1000.44
2016-11-17T01:53:48.654Z,1000.4
2016-11-17T01:54:48.636Z,1000.51
2016-11-17T01:55:48.621Z,1000.53
2016-11-17T01:56:48.606Z,1000.46
2016-11-17T01:57:48.589Z,1000.47
2016-11-17T01:58:48.573Z,1000.39
2016-11-17T01:59:48.560Z,1000.35
2016-11-17T02:00:48.543Z,1000.29
2016-11-17T02:01:48.527Z,1000.26
2016-11-17T02:02:48.512Z,1000.23
2016-11-17T02:03:48.496Z,1000.25
2016-11-17T02:04:48.481Z,1000.2
2016-11-17T02:05:48.468Z,1000.19
2016-11-17T02:06:48.450Z,1000.18
2016-11-17T02:07:48.436Z,1000.17
2016-11-17T02:08:48.418Z,1000.16
2016-11-17T02:09:48.403Z,1000.09
2016-11-17T02:10:48.387Z,1000.06
2016-11-17T02:11:48.372Z,1000.08
2016-11-17T02:12:48.356Z,1000.05
2016-11-17T02:13:48.340Z,999.96
2016-11-17T02:14:48.325Z,999.96
2016-11-17T02:15:48.310Z,999.91
2016-11-17T02:16:48.293Z,999.87
2016-11-17T02:17:48.281Z,999.86
2016-11-17T02:18:48.262Z,999.89
2016-11-17T02:19:48.246Z,999.86
2016-11-17T02:20:48.230Z,999.8
2016-11-17T02:25:48.152Z,999.72
2016-11-17T02:26:48.137Z,999.64
2016-11-17T02:27:48.121Z,999.65
2016-11-17T02:28:48.107Z,999.6
2016-11-17T02:29:48.089Z,999.61
2016-11-17T02:30:48.074Z,999.61
2016-11-17T02:31:48.059Z,999.59
2016-11-17T02:32:48.052Z,999.52
2016-11-17T02:33:48.029Z,999.51
2016-11-17T02:34:48.011Z,999.48
2016-11-17T02:35:48.006Z,999.43
2016-11-17T02:36:47.979Z,999.45
2016-11-17T02:37:47.966Z,999.44
2016-11-17T02:38:47.949Z,999.39
2016-11-17T02:39:47.933Z,999.4
2016-11-17T02:40:47.918Z,999.38
2016-11-17T02:41:47.903Z,999.4
2016-11-17T02:42:47.887Z,999.37
2016-11-17T02:43:47.872Z,999.37
2016-11-17T02:44:47.858Z,999.38
2016-11-17T02:45:47.839Z,999.37
2016-11-17T02:46:47.824Z,999.35
2016-11-17T02:47:47.813Z,999.38
2016-11-17T02:48:47.794Z,999.36
2016-11-17T02:49:47.779Z,999.3
2016-11-17T02:50:47.762Z,999.3
2016-11-17T02:51:47.747Z,999.35
2016-11-17T02:52:47.731Z,999.29
2016-11-17T02:53:47.717Z,999.27
2016-11-17T02:54:47.701Z,999.25
2016-11-17T02:55:47.684Z,999.21
2016-11-17T02:56:47.669Z,999.24
2016-11-17T02:57:47.655Z,999.23
2016-11-17T02:58:47.638Z,999.24
2016-11-17T02:59:47.624Z,999.2
2016-11-17T03:00:47.610Z,999.16
2016-11-17T03:01:47.594Z,999.18
2016-11-17T03:02:47.576Z,999.13
2016-11-17T03:03:47.562Z,999.15
2016-11-17T03:04:47.547Z,999.15
2016-11-17T03:05:47.530Z,999.14
2016-11-17T03:06:47.518Z,999.14
2016-11-17T03:07:47.499Z,999.11
2016-11-17T03:08:47.489Z,999.08
2016-11-17T03:09:47.469Z,999.07
2016-11-17T03:10:47.452Z,999.09
2016-11-17T03:11:47.439Z,999.04
2016-11-17T03:12:47.424Z,998.97
2016-11-17T03:13:47.407Z,999
2016-11-17T03:14:47.392Z,999.02
2016-11-17T03:15:47.376Z,998.98
2016-11-17T03:16:47.361Z,998.95
2016-11-17T03:17:47.346Z,998.9
2016-11-17T03:18:47.328Z,998.92
2016-11-17T03:19:47.313Z,998.89
2016-11-17T03:20:47.299Z,998.87
2016-11-17T03:21:47.282Z,998.9
2016-11-17T03:22:47.268Z,998.84
2016-11-17T03:23:47.254Z,998.85
2016-11-17T03:24:47.240Z,998.87
2016-11-17T03:25:47.222Z,998.82
2016-11-17T03:26:47.209Z,998.79
2016-11-17T03:27:47.243Z,998.82
2016-11-17T03:28:47.183Z,998.78
2016-11-17T03:29:47.160Z,998.74
2016-11-17T03:30:47.148Z,998.76
2016-11-17T03:31:47.131Z,998.71
2016-11-17T03:32:47.114Z,998.7
2016-11-17T03:33:47.100Z,998.69
2016-11-17T03:34:47.087Z,998.71
2016-11-17T03:35:47.119Z,998.7
2016-11-17T03:36:47.055Z,998.64
2016-11-17T03:37:47.040Z,998.61
2016-11-17T03:38:47.026Z,998.6
2016-11-17T03:39:47.009Z,998.65
2016-11-17T03:40:46.995Z,998.53
2016-11-17T03:41:46.980Z,998.61
2016-11-17T03:42:46.966Z,998.58
2016-11-17T03:43:46.948Z,998.56
2016-11-17T03:44:46.934Z,998.61
2016-11-17T03:45:46.919Z,998.6
2016-11-17T03:46:46.905Z,998.55
2016-11-17T03:47:46.889Z,998.52
2016-11-17T03:48:46.873Z,998.45
2016-11-17T03:49:46.860Z,998.41
2016-11-17T03:50:46.844Z,998.44
2016-11-17T03:51:46.833Z,998.43
2016-11-17T03:52:46.823Z,998.41
2016-11-17T03:53:46.797Z,998.47
2016-11-17T03:54:46.783Z,998.47
2016-11-17T03:55:46.766Z,998.45
2016-11-17T03:56:46.754Z,998.46
2016-11-17T03:57:46.739Z,998.46
2016-11-17T03:58:46.723Z,998.49
2016-11-17T03:59:46.721Z,998.41
2016-11-17T04:00:46.692Z,998.4
2016-11-17T04:01:46.696Z,998.42
2016-11-17T04:02:46.661Z,998.35
2016-11-17T04:03:46.646Z,998.34
2016-11-17T04:04:46.631Z,998.37
2016-11-17T04:05:46.614Z,998.34
2016-11-17T04:06:46.599Z,998.34
2016-11-17T04:07:46.595Z,998.32
2016-11-17T04:08:46.570Z,998.26
2016-11-17T04:09:46.554Z,998.26
2016-11-17T04:10:46.539Z,998.27
2016-11-17T04:11:46.523Z,998.26
2016-11-17T04:12:46.512Z,998.29
2016-11-17T04:13:46.495Z,998.21
2016-11-17T04:14:46.478Z,998.17
2016-11-17T04:15:46.463Z,998.18
2016-11-17T04:16:46.449Z,998.15
2016-11-17T04:17:46.433Z,998.15
2016-11-17T04:18:46.419Z,998.12
2016-11-17T04:19:46.402Z,998.11
2016-11-17T04:20:46.387Z,998.04
2016-11-17T04:21:46.373Z,998.08
2016-11-17T04:22:46.356Z,998.06
2016-11-17T04:23:46.343Z,998.08
2016-11-17T04:24:46.325Z,998.14
2016-11-17T04:25:46.310Z,998.03
2016-11-17T04:26:46.295Z,998.02
2016-11-17T04:27:46.277Z,998.01
2016-11-17T04:28:46.263Z,998.01
2016-11-17T04:29:46.247Z,997.95
2016-11-17T04:30:46.233Z,997.96
2016-11-17T04:31:46.218Z,997.88
2016-11-17T04:32:46.201Z,997.9
2016-11-17T04:33:46.187Z,997.9
2016-11-17T04:34:46.171Z,997.92
2016-11-17T04:35:46.156Z,997.89
2016-11-17T04:36:46.141Z,997.89
2016-11-17T04:37:46.125Z,997.87
2016-11-17T04:38:46.109Z,997.87
2016-11-17T04:39:46.094Z,997.83
2016-11-17T04:40:46.079Z,997.8
2016-11-17T04:41:46.064Z,997.8
2016-11-17T04:42:46.047Z,997.79
2016-11-17T04:43:46.032Z,997.8
2016-11-17T04:44:46.017Z,997.77
2016-11-17T04:45:46.003Z,997.76
2016-11-17T04:46:45.987Z,997.75
2016-11-17T04:47:45.973Z,997.74
2016-11-17T04:48:45.955Z,997.71
2016-11-17T04:49:45.939Z,997.69
2016-11-17T04:50:45.924Z,997.64
2016-11-17T04:51:45.907Z,997.6
2016-11-17T04:52:45.893Z,997.6
2016-11-17T04:53:45.877Z,997.63
2016-11-17T04:54:45.860Z,997.62
2016-11-17T04:55:45.847Z,997.6
2016-11-17T04:56:45.828Z,997.58
2016-11-17T04:57:45.814Z,997.58
2016-11-17T04:58:45.800Z,997.57
2016-11-17T04:59:45.785Z,997.5
2016-11-17T05:00:45.769Z,997.52
2016-11-17T05:01:45.753Z,997.53
2016-11-17T05:02:45.738Z,997.58
2016-11-17T05:03:45.723Z,997.59
2016-11-17T05:04:45.707Z,997.65
2016-11-17T05:05:45.692Z,997.7
2016-11-17T05:06:45.678Z,997.81
2016-11-17T05:07:45.660Z,997.9
2016-11-17T05:08:45.643Z,997.96
2016-11-17T05:09:45.629Z,997.92
2016-11-17T05:10:45.616Z,997.91
2016-11-17T05:11:45.602Z,997.92
2016-11-17T05:12:45.587Z,997.92
2016-11-17T05:13:45.567Z,997.94
2016-11-17T05:14:45.552Z,997.89
2016-11-17T05:15:45.535Z,997.93
2016-11-17T05:16:45.526Z,997.93
2016-11-17T05:17:45.505Z,997.85
2016-11-17T05:18:45.490Z,997.83
2016-11-17T05:19:45.473Z,997.86
2016-11-17T05:20:45.459Z,997.81
2016-11-17T05:21:45.443Z,997.86
2016-11-17T05:22:45.427Z,997.8
2016-11-17T05:23:45.411Z,997.81
2016-11-17T05:24:45.449Z,997.77
2016-11-17T05:25:45.384Z,997.75
2016-11-17T05:26:45.366Z,997.8
2016-11-17T05:27:45.350Z,997.73
2016-11-17T05:28:45.334Z,997.71
2016-11-17T05:29:45.317Z,997.66
2016-11-17T05:30:45.303Z,997.66
2016-11-17T05:31:45.290Z,997.69
2016-11-17T05:32:45.273Z,997.72
2016-11-17T05:33:45.258Z,997.68
2016-11-17T05:34:45.240Z,997.66
2016-11-17T05:35:45.227Z,997.72
2016-11-17T05:36:45.413Z,997.73
2016-11-17T05:37:45.195Z,997.77
2016-11-17T05:38:45.180Z,997.76
2016-11-17T05:39:45.166Z,997.8
2016-11-17T05:40:45.148Z,997.77
2016-11-17T05:41:45.133Z,997.81
2016-11-17T05:42:45.117Z,997.82
2016-11-17T05:43:45.102Z,997.78
2016-11-17T05:44:45.087Z,997.74
2016-11-17T05:45:45.071Z,997.79
2016-11-17T05:46:45.056Z,997.74
2016-11-17T05:47:45.042Z,997.75
2016-11-17T05:48:45.026Z,997.77
2016-11-17T05:49:45.009Z,997.77
2016-11-17T05:50:44.993Z,997.8
2016-11-17T05:51:44.979Z,997.77
2016-11-17T05:52:44.963Z,997.82
2016-11-17T05:53:44.946Z,997.78
2016-11-17T05:54:44.931Z,997.79
2016-11-17T05:55:44.914Z,997.81
2016-11-17T05:56:44.899Z,997.8
2016-11-17T05:57:44.884Z,997.81
2016-11-17T05:58:44.869Z,997.82
2016-11-17T05:59:44.853Z,997.77
2016-11-17T06:00:44.836Z,997.8
2016-11-17T06:01:44.822Z,997.8
2016-11-17T06:02:44.806Z,997.81
2016-11-17T06:03:44.796Z,997.76
2016-11-17T06:04:44.775Z,997.78
2016-11-17T06:05:44.758Z,997.76
2016-11-17T06:06:44.742Z,997.75
2016-11-17T06:07:44.729Z,997.77
2016-11-17T06:08:44.714Z,997.79
2016-11-17T06:09:44.697Z,997.81
2016-11-17T06:10:44.681Z,997.9
2016-11-17T06:11:44.664Z,997.89
2016-11-17T06:12:44.649Z,997.9
2016-11-17T06:13:44.634Z,997.91
2016-11-17T06:14:44.619Z,997.88
2016-11-17T06:15:44.603Z,997.87
2016-11-17T06:16:44.586Z,997.84
2016-11-17T06:17:44.570Z,997.84
2016-11-17T06:18:44.555Z,997.85
2016-11-17T06:19:44.540Z,997.82
2016-11-17T06:20:44.523Z,997.82
2016-11-17T06:21:44.511Z,997.82
2016-11-17T06:22:44.492Z,997.82
2016-11-17T06:23:44.476Z,997.8
2016-11-17T06:24:44.462Z,997.74
2016-11-17T06:25:44.444Z,997.82
2016-11-17T06:26:44.428Z,997.78
2016-11-17T06:27:44.412Z,997.78
2016-11-17T06:28:44.398Z,997.77
2016-11-17T06:29:44.384Z,997.79
2016-11-17T06:30:44.418Z,997.77
2016-11-17T06:31:44.349Z,997.83
2016-11-17T06:32:44.335Z,997.79
2016-11-17T06:33:44.319Z,997.75
2016-11-17T06:34:44.302Z,997.7
2016-11-17T06:35:44.285Z,997.78
2016-11-17T06:36:44.272Z,997.76
2016-11-17T06:37:44.253Z,997.85
2016-11-17T06:38:44.238Z,997.82
2016-11-17T06:39:44.223Z,997.82
2016-11-17T06:40:44.206Z,997.87
2016-11-17T06:41:44.191Z,997.84
2016-11-17T06:42:44.173Z,997.84
2016-11-17T06:43:44.158Z,997.85
2016-11-17T06:44:44.141Z,997.79
2016-11-17T06:45:44.125Z,997.8
2016-11-17T06:46:44.108Z,997.81
2016-11-17T06:47:44.092Z,997.81
2016-11-17T06:48:44.077Z,997.8
2016-11-17T06:49:44.068Z,997.83
2016-11-17T06:50:44.045Z,997.84
2016-11-17T06:51:44.029Z,997.82
2016-11-17T06:52:44.017Z,997.82
2016-11-17T06:53:43.996Z,997.83
2016-11-17T06:54:43.983Z,997.83
2016-11-17T06:55:43.966Z,997.86
2016-11-17T06:56:43.950Z,997.85
2016-11-17T06:57:43.940Z,997.82
2016-11-17T06:58:43.917Z,997.86
2016-11-17T06:59:43.903Z,997.92
2016-11-17T07:00:43.891Z,997.9
2016-11-17T07:01:43.869Z,997.94
2016-11-17T07:02:43.854Z,997.93
2016-11-17T07:03:43.837Z,997.94
2016-11-17T07:04:43.820Z,998
2016-11-17T07:05:43.805Z,997.95
2016-11-17T07:06:43.789Z,997.97
2016-11-17T07:07:43.773Z,997.97
2016-11-17T07:08:43.757Z,997.98
2016-11-17T07:09:43.740Z,997.93
2016-11-17T07:10:43.725Z,998.03
2016-11-17T07:11:43.708Z,997.99
2016-11-17T07:12:43.702Z,998
2016-11-17T07:13:43.679Z,997.99
2016-11-17T07:14:43.661Z,998.1
2016-11-17T07:15:43.643Z,998.09
2016-11-17T07:16:43.630Z,998.06
2016-11-17T07:17:43.613Z,998.1
2016-11-17T07:18:43.597Z,998.1
2016-11-17T07:19:43.583Z,998.08
2016-11-17T07:20:43.564Z,998.06
2016-11-17T07:21:43.549Z,998.13
2016-11-17T07:22:43.535Z,998.11
2016-11-17T07:23:43.517Z,998.16
2016-11-17T07:24:43.502Z,998.12
2016-11-17T07:25:43.485Z,998.11
2016-11-17T07:26:43.470Z,998.12
2016-11-17T07:27:43.454Z,998.1
2016-11-17T07:28:43.438Z,998.15
2016-11-17T07:29:43.423Z,998.11
2016-11-17T07:30:43.407Z,998.13
2016-11-17T07:31:43.390Z,998.17
2016-11-17T07:32:43.374Z,998.13
2016-11-17T07:33:43.358Z,998.15
2016-11-17T07:34:43.341Z,998.2
2016-11-17T07:35:43.326Z,998.13
2016-11-17T07:36:43.518Z,998.12
2016-11-17T07:37:43.295Z,998.12
2016-11-17T07:38:43.281Z,998.11
2016-11-17T07:39:43.262Z,998.16
2016-11-17T07:40:43.247Z,998.13
2016-11-17T07:41:43.231Z,998.12
2016-11-17T07:42:43.216Z,998.08
2016-11-17T07:43:43.200Z,998.09
2016-11-17T07:44:43.184Z,998.13
2016-11-17T07:45:43.174Z,998.07
2016-11-17T07:46:43.155Z,998.12
2016-11-17T07:47:43.142Z,998.1
2016-11-17T07:48:43.125Z,998.06
2016-11-17T07:49:43.108Z,998.1
2016-11-17T07:50:43.091Z,998.09
2016-11-17T07:51:43.073Z,998.12
2016-11-17T07:52:43.058Z,998.09
2016-11-17T07:53:43.041Z,998.02
2016-11-17T07:54:43.028Z,998.06
2016-11-17T07:55:43.011Z,997.99
2016-11-17T07:56:42.995Z,997.98
2016-11-17T07:57:42.983Z,998
2016-11-17T07:58:42.963Z,997.97
2016-11-17T07:59:42.948Z,997.98
2016-11-17T08:00:42.932Z,997.96
2016-11-17T08:01:42.917Z,998.03
2016-11-17T08:02:42.903Z,998.03
2016-11-17T08:03:42.886Z,998.03
2016-11-17T08:04:42.872Z,998.01
2016-11-17T08:05:42.856Z,998.01
2016-11-17T08:06:42.839Z,998.01
2016-11-17T08:07:42.823Z,997.97
2016-11-17T08:08:42.808Z,997.97
2016-11-17T08:09:42.792Z,997.94
2016-11-17T08:10:42.776Z,997.96
2016-11-17T08:11:42.761Z,997.97
2016-11-17T08:12:42.744Z,997.97
2016-11-17T08:13:42.730Z,997.98
2016-11-17T08:14:42.714Z,997.97
2016-11-17T08:15:42.701Z,997.95
2016-11-17T08:16:42.683Z,997.97
2016-11-17T08:17:42.668Z,997.99
2016-11-17T08:18:42.654Z,997.95
2016-11-17T08:19:42.638Z,998
2016-11-17T08:20:42.622Z,997.98
2016-11-17T08:21:42.608Z,997.99
2016-11-17T08:22:42.592Z,997.97
2016-11-17T08:23:42.576Z,997.95
2016-11-17T08:24:42.562Z,997.98
2016-11-17T08:25:42.544Z,997.91
2016-11-17T08:26:42.529Z,997.92
2016-11-17T08:27:42.517Z,997.91
2016-11-17T08:28:42.498Z,997.94
2016-11-17T08:29:42.483Z,997.96
2016-11-17T08:30:42.468Z,997.92
2016-11-17T08:31:42.453Z,997.9
2016-11-17T08:32:42.436Z,997.88
2016-11-17T08:33:42.420Z,997.86
2016-11-17T08:34:42.407Z,997.84
2016-11-17T08:35:42.391Z,997.83
2016-11-17T08:36:42.376Z,997.85
2016-11-17T08:37:42.360Z,997.86
2016-11-17T08:38:42.345Z,997.93
2016-11-17T08:39:42.328Z,997.89
2016-11-17T08:40:42.313Z,997.86
2016-11-17T08:41:42.300Z,997.92
2016-11-17T08:42:42.282Z,997.88
2016-11-17T08:43:42.271Z,997.87
2016-11-17T08:44:42.250Z,997.9
2016-11-17T08:45:42.237Z,997.86
2016-11-17T08:46:42.220Z,997.86
2016-11-17T08:47:42.205Z,997.87
2016-11-17T08:48:42.188Z,997.84
2016-11-17T08:49:42.173Z,997.92
2016-11-17T08:50:42.158Z,997.87
2016-11-17T08:51:42.144Z,997.83
2016-11-17T08:52:42.128Z,997.76
2016-11-17T08:53:42.112Z,997.73
2016-11-17T08:54:42.096Z,997.77
2016-11-17T08:55:42.082Z,997.78
2016-11-17T08:56:42.067Z,997.77
2016-11-17T08:57:42.051Z,997.75
2016-11-17T08:58:42.036Z,997.7
2016-11-17T08:59:42.021Z,997.69
2016-11-17T09:00:42.005Z,997.69
2016-11-17T09:01:41.996Z,997.58
2016-11-17T09:02:41.979Z,997.7
2016-11-17T09:03:41.961Z,997.65
2016-11-17T09:04:41.947Z,997.66
2016-11-17T09:05:41.930Z,997.54
2016-11-17T09:06:41.914Z,997.6
2016-11-17T09:07:41.901Z,997.62
2016-11-17T09:08:41.886Z,997.72
2016-11-17T09:09:41.872Z,997.65
2016-11-17T09:10:41.859Z,997.61
2016-11-17T09:11:41.842Z,997.56
2016-11-17T09:12:41.827Z,997.64
2016-11-17T09:13:41.810Z,997.59
2016-11-17T09:14:41.796Z,997.62
2016-11-17T09:15:41.782Z,997.59
2016-11-17T09:16:41.766Z,997.57
2016-11-17T09:17:41.753Z,997.59
2016-11-17T09:18:41.738Z,997.63
2016-11-17T09:19:41.724Z,997.63
2016-11-17T09:20:41.710Z,997.65
2016-11-17T09:21:41.696Z,997.72
2016-11-17T09:22:41.682Z,997.64
2016-11-17T09:23:41.668Z,997.67
2016-11-17T09:24:41.653Z,997.67
2016-11-17T09:25:41.637Z,997.71
2016-11-17T09:26:41.625Z,997.67
2016-11-17T09:27:41.612Z,997.71
2016-11-17T09:28:41.646Z,997.62
2016-11-17T09:29:41.583Z,997.62
2016-11-17T09:30:41.567Z,997.67
2016-11-17T09:31:41.554Z,997.69
2016-11-17T09:32:41.540Z,997.72
2016-11-17T09:33:41.527Z,997.72
2016-11-17T09:34:41.510Z,997.72
2016-11-17T09:35:41.497Z,997.76
2016-11-17T09:36:41.684Z,997.79
2016-11-17T09:37:41.470Z,997.69
2016-11-17T09:38:41.455Z,997.64
2016-11-17T09:39:41.441Z,997.64
2016-11-17T09:40:41.426Z,997.6
2016-11-17T09:41:41.412Z,997.67
2016-11-17T09:42:41.398Z,997.63
2016-11-17T09:43:41.384Z,997.7
2016-11-17T09:44:41.372Z,997.68
2016-11-17T09:45:41.354Z,997.69
2016-11-17T09:46:41.342Z,997.63
2016-11-17T09:47:41.329Z,997.69
2016-11-17T09:48:41.314Z,997.68
2016-11-17T09:49:41.300Z,997.63
2016-11-17T09:50:41.285Z,997.6
2016-11-17T09:51:41.273Z,997.68
2016-11-17T09:52:41.257Z,997.67
2016-11-17T09:53:41.243Z,997.71
2016-11-17T09:54:41.230Z,997.68
2016-11-17T09:55:41.217Z,997.64
2016-11-17T09:56:41.205Z,997.71
2016-11-17T09:57:41.192Z,997.63
2016-11-17T09:58:41.228Z,997.63
2016-11-17T09:59:41.161Z,997.6
2016-11-17T10:00:41.145Z,997.69
2016-11-17T10:01:41.132Z,997.69
2016-11-17T10:02:41.116Z,997.63
2016-11-17T10:03:41.102Z,997.68
2016-11-17T10:04:41.090Z,997.63
2016-11-17T10:05:41.076Z,997.63
2016-11-17T10:06:41.061Z,997.64
2016-11-17T10:07:41.045Z,997.6
2016-11-17T10:08:41.034Z,997.68
2016-11-17T10:09:41.018Z,997.62
2016-11-17T10:10:41.005Z,997.57
2016-11-17T10:11:40.987Z,997.52
2016-11-17T10:12:40.973Z,997.51
2016-11-17T10:13:40.960Z,997.54
2016-11-17T10:14:40.945Z,997.46
2016-11-17T10:15:40.929Z,997.41
2016-11-17T10:16:40.915Z,997.35
2016-11-17T10:17:40.901Z,997.31
2016-11-17T10:18:40.885Z,997.36
2016-11-17T10:19:40.871Z,997.51
2016-11-17T10:20:40.857Z,997.4
2016-11-17T10:21:40.841Z,997.24
2016-11-17T10:22:40.826Z,997.2
2016-11-17T10:23:40.812Z,997.22
2016-11-17T10:24:40.798Z,997.24
2016-11-17T10:25:40.781Z,997.2
2016-11-17T10:26:40.768Z,997.1
2016-11-17T10:27:41.201Z,997.06
2016-11-17T10:28:40.740Z,997.11
2016-11-17T10:29:40.724Z,997.06
2016-11-17T10:30:40.708Z,997.04
2016-11-17T10:31:40.695Z,996.96
2016-11-17T10:32:40.681Z,996.97
2016-11-17T10:33:40.665Z,996.96
2016-11-17T10:34:40.650Z,996.96
2016-11-17T10:35:40.637Z,997.04
2016-11-17T10:36:40.619Z,996.95
2016-11-17T10:37:40.604Z,996.98
2016-11-17T10:38:40.591Z,996.92
2016-11-17T10:39:40.576Z,996.94
2016-11-17T10:40:40.560Z,996.89
2016-11-17T10:41:40.547Z,996.91
2016-11-17T10:42:40.532Z,996.89
2016-11-17T10:43:40.518Z,996.9
2016-11-17T10:44:40.505Z,996.97
2016-11-17T10:45:40.489Z,996.97
2016-11-17T10:46:40.475Z,996.94
2016-11-17T10:47:40.462Z,996.94
2016-11-17T10:48:40.448Z,996.87
2016-11-17T10:49:40.433Z,996.85
2016-11-17T10:50:40.419Z,996.83
2016-11-17T10:51:40.405Z,996.81
2016-11-17T10:52:40.395Z,996.79
2016-11-17T10:53:40.382Z,996.8
2016-11-17T10:54:40.366Z,996.77
2016-11-17T10:55:40.353Z,996.7
2016-11-17T10:56:40.339Z,996.62
2016-11-17T10:57:40.326Z,996.57
2016-11-17T10:58:40.311Z,996.65
2016-11-17T10:59:40.299Z,996.64
2016-11-17T11:00:40.286Z,996.62
2016-11-17T11:01:40.272Z,996.62
2016-11-17T11:02:40.260Z,996.67
2016-11-17T11:03:40.247Z,996.64
2016-11-17T11:04:40.234Z,996.61
2016-11-17T11:05:40.221Z,996.57
2016-11-17T11:06:40.207Z,996.48
2016-11-17T11:07:40.197Z,996.57
2016-11-17T11:08:40.183Z,996.55
2016-11-17T11:09:40.169Z,996.56
2016-11-17T11:10:40.157Z,996.54
2016-11-17T11:11:40.146Z,996.52
2016-11-17T11:12:40.132Z,996.52
2016-11-17T11:13:40.119Z,996.45
2016-11-17T11:14:40.107Z,996.36
2016-11-17T11:15:40.097Z,996.44
2016-11-17T11:16:40.081Z,996.47
2016-11-17T11:17:40.117Z,996.44
2016-11-17T11:18:40.055Z,996.44
2016-11-17T11:19:40.041Z,996.36
2016-11-17T11:20:40.029Z,996.34
2016-11-17T11:21:40.017Z,996.29
2016-11-17T11:22:40.003Z,996.3
2016-11-17T11:23:39.991Z,996.33
2016-11-17T11:24:39.976Z,996.28
2016-11-17T11:25:39.962Z,996.26
2016-11-17T11:26:39.970Z,996.27
2016-11-17T11:27:39.940Z,996.31
2016-11-17T11:28:39.931Z,996.33
2016-11-17T11:29:39.914Z,996.3
2016-11-17T11:30:39.950Z,996.31
2016-11-17T11:31:39.885Z,996.31
2016-11-17T11:32:39.881Z,996.42
2016-11-17T11:33:39.862Z,996.43
2016-11-17T11:34:39.845Z,996.35
2016-11-17T11:35:39.839Z,996.3
2016-11-17T11:36:40.024Z,996.35
2016-11-17T11:37:39.812Z,996.32
2016-11-17T11:38:39.794Z,996.3
2016-11-17T11:39:39.786Z,996.3
2016-11-17T11:40:39.774Z,996.29
2016-11-17T11:41:39.778Z,996.23
2016-11-17T11:42:39.742Z,996.14
2016-11-17T11:43:39.728Z,996.19
2016-11-17T11:44:39.715Z,996.1
2016-11-17T11:45:39.702Z,996.15
2016-11-17T11:46:39.687Z,996.09
2016-11-17T11:47:39.675Z,996.12
2016-11-17T11:48:39.663Z,996.14
2016-11-17T11:49:39.657Z,996.15
2016-11-17T11:50:39.638Z,996.24
2016-11-17T11:51:39.629Z,996.18
2016-11-17T11:52:39.616Z,996.17
2016-11-17T11:53:39.602Z,996.08
2016-11-17T11:54:39.591Z,996.05
2016-11-17T11:55:39.581Z,996.17
2016-11-17T11:56:39.572Z,996.22
2016-11-17T11:57:39.560Z,996.19
2016-11-17T11:58:39.557Z,996.21
2016-11-17T11:59:39.538Z,996.22
2016-11-17T12:00:39.535Z,996.19
2016-11-17T12:01:39.523Z,996.16
2016-11-17T12:02:39.524Z,996.25
2016-11-17T12:03:39.507Z,996.19
2016-11-17T12:04:39.492Z,996.16
2016-11-17T12:05:39.480Z,996.28
2016-11-17T12:06:39.620Z,996.24
2016-11-17T12:07:39.464Z,996.19
2016-11-17T12:08:39.457Z,996.16
2016-11-17T12:09:39.442Z,996.17
2016-11-17T12:10:39.435Z,996.13
2016-11-17T12:11:39.425Z,996.18
2016-11-17T12:12:39.413Z,996.11
2016-11-17T12:13:39.421Z,995.99
2016-11-17T12:14:39.397Z,996.06
2016-11-17T12:15:39.386Z,996.01
2016-11-17T12:16:39.390Z,996.11
2016-11-17T12:17:39.370Z,996.03
2016-11-17T12:18:39.359Z,996.1
2016-11-17T12:19:39.351Z,996
2016-11-17T12:20:39.342Z,995.98
2016-11-17T12:21:39.335Z,996.03
2016-11-17T12:22:39.323Z,995.93
2016-11-17T12:23:39.315Z,995.9
2016-11-17T12:24:39.304Z,995.88
2016-11-17T12:25:39.297Z,995.82
2016-11-17T12:26:39.284Z,995.85
2016-11-17T12:27:39.279Z,995.83
2016-11-17T12:28:39.419Z,995.82
2016-11-17T12:29:39.268Z,995.9
2016-11-17T12:30:39.252Z,995.87
2016-11-17T12:31:39.251Z,995.93